Impacts METAR Board
IDs:

KBWI - Baltimore-Washington, MD, US

Updated at: 0300 UTC 20 Mar 2019
Potential Impact None Slight Moderate High
Time 19/15Z 19/16Z 19/17Z 19/18Z 19/19Z 19/20Z 19/21Z 19/22Z 19/23Z 20/00Z 20/01Z 20/02Z 20/03Z
Temp45 46 47 49 51 51 50 48 47 44 41 39 37
Dewpt15 12 12 12 14 15 12 11 12 13 16 16 16
Altim30.47 30.47 30.46 30.44 30.41 30.40 30.38 30.38 30.39 30.40 30.40 30.41 30.40
VIS10 10 10 10 10 10 10 10 10 10 10 10 10
CIG-- -- -- -- -- -- -- -- -- -- -- -- --
CoverFEWFEWFEWFEWFEWFEWFEWFEWFEWFEWFEWCLRCLR
FltCatVFRVFRVFRVFRVFRVFRVFRVFRVFRVFRVFRVFRVFR
WX--------------------------
WDir10000033024011011014016018000
WSpd6 6 4 5 6 7 8 6 6 4 3 0 0
WGst-- -- -- -- -- -- -- -- -- -- -- -- --
Raw hourly METARs
KBWI 191454Z 10006KT 10SM FEW055 FEW250 07/M09 A3047 RMK AO2 SLP320 T00721094 53013
KBWI 191554Z VRB06KT 10SM FEW060 FEW250 08/M11 A3047 RMK AO2 SLP318 T00781111
KBWI 191654Z VRB04KT 10SM FEW065 FEW250 08/M11 A3046 RMK AO2 SLP314 T00831111
KBWI 191754Z VRB05KT 10SM FEW065 FEW250 09/M11 A3044 RMK AO2 SLP307 T00941111 10094 21006 58013
KBWI 191854Z 33006KT 10SM FEW065 FEW250 11/M10 A3041 RMK AO2 SLP299 T01061100
KBWI 191954Z 24007KT 10SM FEW065 FEW250 11/M09 A3040 RMK AO2 SLP294 T01061094
KBWI 192054Z 11008KT 10SM FEW065 FEW250 10/M11 A3038 RMK AO2 SLP288 T01001111 56019
KBWI 192154Z 11006KT 10SM FEW250 09/M12 A3038 RMK AO2 SLP286 T00891117
KBWI 192254Z 14006KT 10SM FEW250 08/M11 A3039 RMK AO2 SLP290 T00831111
KBWI 192354Z 16004KT 10SM FEW250 07/M11 A3040 RMK AO2 SLP294 T00671106 10111 20067 53006
KBWI 200054Z 18003KT 10SM FEW250 05/M09 A3040 RMK AO2 SLP296 T00501089
KBWI 200154Z 00000KT 10SM CLR 04/M09 A3041 RMK AO2 SLP297 T00391089
KBWI 200254Z 00000KT 10SM CLR 03/M09 A3040 RMK AO2 SLP296 T00281089 50002



Page loaded:  03:23 UTC  |   08:23 PM Pacific  |   09:23 PM Mountain  |   10:23 PM Central  |   11:23 PM Eastern

 

ADVISORIES

FORECASTS

FORECASTS

OBSERVATIONS

USER TOOLS

ABOUT US